Terminal Aerodrome Forecast
Issued by NWS

Home | Current Version | Previous Version | Text Only | Print | Product List | Glossary On
Versions: 1 2 3 4 5 6 7 8 9 10 11 12 13 14 15 16 17 18 19 20 21 22 23
363
FTUS43 KSGF 300525
TAFJLN
TAF
KJLN 300525Z 3006/3106 22009KT P6SM SCT090
     FM301300 21011KT P6SM VCSH OVC008
     FM301500 22009KT P6SM -SHRA BKN008
     FM302300 27009KT 5SM -SHRA OVC010
     FM310000 27010KT P6SM OVC010
     FM310500 30007KT P6SM BKN015=

USA.gov is the U.S. government's official web portal to all federal, state and local government web resources and services.